Time;durP1;ratioP1;P1;durP2;ratioP2;P2;SDS_P1;SDS_P2;PMS_P1;PMS_P2;Temp;Humidity;BMP_temperature;BMP_pressure;BME280_temperature;BME280_humidity;BME280_pressure;Samples;Min_cycle;Max_cycle;Signal;HPM_P1;HPM_P2
2023/03/24 00:02:17;;;;;;;28.70;14.40;;;;;;;7.06;100.00;99017.13;105582;1296;25509;-76
2023/03/24 00:04:48;;;;;;;31.40;15.90;;;;;;;6.99;100.00;99011.07;104842;1297;1003829;-76
2023/03/24 00:07:22;;;;;;;26.60;13.10;;;;;;;6.95;100.00;99006.79;105563;1296;26635;-77
2023/03/24 00:09:52;;;;;;;26.60;12.90;;;;;;;6.90;100.00;98998.66;105597;1297;25459;-76
2023/03/24 00:12:21;;;;;;;25.60;11.50;;;;;;;6.89;100.00;98993.29;105410;1297;23297;-76
2023/03/24 00:14:55;;;;;;;23.30;12.20;;;;;;;6.87;100.00;98991.42;105556;1297;26551;-76
2023/03/24 00:17:24;;;;;;;25.40;12.00;;;;;;;6.83;100.00;98982.96;105589;1296;22650;-76
2023/03/24 00:19:54;;;;;;;24.20;12.40;;;;;;;6.79;100.00;98974.35;105590;1296;25474;-76
2023/03/24 00:22:27;;;;;;;21.90;11.10;;;;;;;6.75;100.00;98976.54;105441;1296;26547;-78
2023/03/24 00:24:55;;;;;;;27.70;12.70;;;;;;;6.72;100.00;98967.91;104427;1296;1003088;-78
2023/03/24 00:27:24;;;;;;;28.50;13.40;;;;;;;6.69;100.00;98960.06;105111;1296;25409;-77
2023/03/24 00:29:53;;;;;;;30.10;13.40;;;;;;;6.64;100.00;98949.15;105193;1296;26556;-78
2023/03/24 00:32:22;;;;;;;28.80;13.40;;;;;;;6.59;100.00;98945.23;105500;1296;25490;-78
2023/03/24 00:34:51;;;;;;;28.50;13.90;;;;;;;6.54;100.00;98934.50;105539;1296;25380;-76
2023/03/24 00:37:20;;;;;;;28.40;13.90;;;;;;;6.49;100.00;98932.20;105558;1296;25415;-76
2023/03/24 00:39:49;;;;;;;31.10;15.30;;;;;;;6.42;100.00;98936.17;105394;1296;25366;-75
2023/03/24 00:42:18;;;;;;;28.10;14.90;;;;;;;6.36;100.00;98932.52;104880;1296;1002658;-77
2023/03/24 00:44:47;;;;;;;26.90;13.00;;;;;;;6.30;100.00;98928.82;105567;1296;26540;-76
2023/03/24 00:47:16;;;;;;;25.40;12.90;;;;;;;6.22;100.00;98928.13;105611;1296;26602;-76
2023/03/24 00:49:46;;;;;;;22.20;12.60;;;;;;;6.17;100.00;98925.55;105584;1296;25453;-76
2023/03/24 00:52:23;;;;;;;29.90;15.50;;;;;;;6.11;100.00;98921.20;105575;1296;23375;-76
2023/03/24 00:54:58;;;;;;;29.70;17.20;;;;;;;6.05;100.00;98914.49;105624;1296;22559;-76
2023/03/24 00:57:28;;;;;;;32.50;16.50;;;;;;;6.02;100.00;98908.79;105391;1296;25272;-76
2023/03/24 00:59:57;;;;;;;32.70;15.90;;;;;;;5.99;100.00;98900.48;105682;1296;22655;-75
2023/03/24 01:02:27;;;;;;;31.30;15.70;;;;;;;5.98;100.00;98891.29;107613;1296;22673;-76
2023/03/24 01:04:58;;;;;;;35.30;17.20;;;;;;;5.99;100.00;98878.74;107839;1296;25453;-76
2023/03/24 01:07:28;;;;;;;38.40;19.00;;;;;;;5.98;100.00;98867.04;106372;1297;25392;-77
2023/03/24 01:09:58;;;;;;;39.50;19.60;;;;;;;5.97;100.00;98855.60;105414;1297;22620;-77
2023/03/24 01:12:27;;;;;;;37.30;19.10;;;;;;;5.97;100.00;98852.21;105133;1296;25418;-75
2023/03/24 01:14:57;;;;;;;42.50;19.90;;;;;;;5.95;100.00;98849.92;105683;1296;25391;-76
2023/03/24 01:17:28;;;;;;;42.70;22.70;;;;;;;5.90;100.00;98844.00;105550;1297;25386;-76
2023/03/24 01:19:57;;;;;;;39.50;21.00;;;;;;;5.85;100.00;98850.13;105585;1296;24079;-76
2023/03/24 01:22:28;;;;;;;33.50;18.60;;;;;;;5.78;100.00;98848.39;105361;1296;25340;-76
2023/03/24 01:24:57;;;;;;;38.10;20.30;;;;;;;5.73;100.00;98850.36;105428;1296;25517;-75
2023/03/24 01:27:26;;;;;;;39.90;19.90;;;;;;;5.69;100.00;98848.63;105560;1296;22779;-76
2023/03/24 01:30:00;;;;;;;37.40;18.70;;;;;;;5.66;100.00;98847.09;105567;1296;25337;-76
2023/03/24 01:32:30;;;;;;;34.80;18.50;;;;;;;5.64;100.00;98842.98;105567;1296;25362;-76
2023/03/24 01:34:59;;;;;;;33.10;18.20;;;;;;;5.64;100.00;98838.34;105402;1296;25452;-76
2023/03/24 01:37:28;;;;;;;41.30;19.10;;;;;;;5.63;100.00;98835.88;105578;1296;25278;-76
2023/03/24 01:39:56;;;;;;;37.00;19.30;;;;;;;5.63;100.00;98833.45;105596;1296;25391;-75
2023/03/24 01:42:26;;;;;;;38.90;20.30;;;;;;;5.60;100.00;98824.66;105375;1296;25434;-76
2023/03/24 01:45:00;;;;;;;36.10;20.50;;;;;;;5.57;100.00;98827.61;105559;1296;22581;-75
2023/03/24 01:47:29;;;;;;;38.70;21.10;;;;;;;5.57;100.00;98824.27;105077;1296;24247;-75
2023/03/24 01:50:01;;;;;;;38.40;20.30;;;;;;;5.56;100.00;98818.50;105580;1296;25340;-78
2023/03/24 01:52:32;;;;;;;36.70;20.50;;;;;;;5.54;100.00;98819.77;105356;1296;25447;-76
2023/03/24 01:55:06;;;;;;;36.50;20.10;;;;;;;5.53;100.00;98820.09;105030;1296;22640;-76
2023/03/24 01:57:40;;;;;;;41.10;23.00;;;;;;;5.52;100.00;98822.87;105400;1296;22824;-77
2023/03/24 02:00:11;;;;;;;41.60;24.20;;;;;;;5.50;100.00;98823.40;105385;1296;24393;-76
2023/03/24 02:03:09;;;;;;;41.90;20.80;;;;;;;5.50;100.00;98825.67;105596;1296;25453;-76
2023/03/24 02:05:45;;;;;;;38.20;19.80;;;;;;;5.50;100.00;98821.83;104861;1296;1002861;-76
2023/03/24 02:08:29;;;;;;;37.60;20.30;;;;;;;5.48;100.00;98819.17;105401;1296;24353;-77
2023/03/24 02:11:00;;;;;;;37.70;20.20;;;;;;;5.49;100.00;98817.95;105384;1296;25424;-75
2023/03/24 02:13:35;;;;;;;43.60;22.40;;;;;;;5.52;100.00;98820.52;105378;1296;26729;-77
2023/03/24 02:16:04;;;;;;;42.10;20.80;;;;;;;5.54;100.00;98824.80;105370;1296;25332;-76
2023/03/24 02:18:51;;;;;;;40.30;20.10;;;;;;;5.56;100.00;98832.05;105614;1296;25274;-76
2023/03/24 02:21:56;;;;;;;42.80;21.70;;;;;;;5.57;100.00;98826.00;105591;1296;25506;-76
2023/03/24 02:24:35;;;;;;;43.90;22.30;;;;;;;5.56;100.00;98827.72;105579;1296;25503;-76
2023/03/24 02:27:32;;;;;;;44.80;22.20;;;;;;;5.55;100.00;98836.27;105477;1296;26551;-76
2023/03/24 02:30:22;;;;;;;41.80;21.90;;;;;;;5.56;100.00;98836.55;105475;1296;24316;-76
2023/03/24 02:33:03;;;;;;;45.60;24.80;;;;;;;5.57;100.00;98840.86;105456;1296;25341;-78
2023/03/24 02:35:37;;;;;;;45.70;25.90;;;;;;;5.57;100.00;98846.65;105568;1296;26675;-76
2023/03/24 02:38:29;;;;;;;46.30;23.40;;;;;;;5.54;100.00;98855.74;105582;1296;25379;-76
2023/03/24 02:41:16;;;;;;;42.90;23.30;;;;;;;5.49;100.00;98854.03;105495;1296;23513;-76
2023/03/24 02:44:12;;;;;;;54.90;27.70;;;;;;;5.47;100.00;98862.54;105452;1296;25532;-75
2023/03/24 02:46:45;;;;;;;42.90;24.10;;;;;;;5.49;100.00;98869.66;104855;1296;1003038;-77
2023/03/24 02:49:51;;;;;;;47.40;25.50;;;;;;;5.51;100.00;98877.29;105405;1296;24358;-77
2023/03/24 02:52:21;;;;;;;48.50;26.00;;;;;;;5.47;100.00;98868.38;105523;1296;25455;-76
2023/03/24 02:55:16;;;;;;;43.70;24.70;;;;;;;5.43;100.00;98871.36;105590;1296;22561;-77
2023/03/24 02:58:02;;;;;;;45.60;23.60;;;;;;;5.39;100.00;98872.15;105349;1296;24073;-76
2023/03/24 03:01:02;;;;;;;42.60;24.20;;;;;;;5.34;100.00;98874.43;105430;1296;25386;-75
2023/03/24 03:03:37;;;;;;;45.80;24.70;;;;;;;5.30;100.00;98883.30;105377;1296;26778;-75
2023/03/24 03:06:11;;;;;;;50.70;24.70;;;;;;;5.24;100.00;98885.35;105234;1296;24279;-76
2023/03/24 03:08:40;;;;;;;44.40;23.40;;;;;;;5.21;100.00;98898.70;105377;1296;22796;-77
2023/03/24 03:11:12;;;;;;;45.30;23.20;;;;;;;5.19;100.00;98906.48;105216;1296;25455;-79
2023/03/24 03:14:05;;;;;;;40.10;21.90;;;;;;;5.15;100.00;98914.70;105452;1296;25332;-78
2023/03/24 03:16:38;;;;;;;40.10;20.80;;;;;;;5.11;100.00;98920.29;105611;1296;25401;-77
2023/03/24 03:19:11;;;;;;;37.60;18.60;;;;;;;5.09;100.00;98930.36;105596;1296;24352;-76
2023/03/24 03:21:41;;;;;;;35.30;19.10;;;;;;;5.07;100.00;98937.16;105420;1296;25497;-76
2023/03/24 03:24:18;;;;;;;37.60;20.40;;;;;;;5.06;100.00;98946.92;105587;1296;25455;-77
2023/03/24 03:26:58;;;;;;;36.30;19.50;;;;;;;5.06;100.00;98961.27;105583;1296;25515;-77
2023/03/24 03:29:33;;;;;;;36.30;18.20;;;;;;;5.06;100.00;98979.26;105654;1296;22549;-76
2023/03/24 03:32:09;;;;;;;36.10;19.40;;;;;;;5.08;100.00;98994.07;106230;1296;24370;-75
2023/03/24 03:35:02;;;;;;;37.70;19.30;;;;;;;5.11;100.00;99029.82;107508;1296;25483;-76
2023/03/24 03:37:34;;;;;;;37.80;20.40;;;;;;;5.15;100.00;99073.70;107288;1296;25498;-80
2023/03/24 03:40:07;;;;;;;;;;;;;;;5.20;100.00;99093.77;105611;1296;23813;-76
2023/03/24 03:42:38;;;;;;;33.00;17.20;;;;;;;5.21;100.00;99108.08;105128;1296;22587;-76
2023/03/24 03:45:11;;;;;;;33.90;18.40;;;;;;;5.20;100.00;99128.08;105641;1296;25227;-76
2023/03/24 03:47:43;;;;;;;33.50;18.20;;;;;;;5.18;100.00;99143.45;105387;1296;26547;-75
2023/03/24 03:50:11;;;;;;;37.00;20.40;;;;;;;5.18;100.00;99161.36;105393;1296;22559;-76
2023/03/24 03:52:43;;;;;;;34.60;18.00;;;;;;;5.17;100.00;99195.96;105380;1296;25397;-76
2023/03/24 03:55:12;;;;;;;39.60;19.60;;;;;;;5.17;100.00;99219.54;105374;1296;26529;-76
2023/03/24 03:57:44;;;;;;;38.10;18.50;;;;;;;5.17;100.00;99240.39;105354;1296;25564;-76
2023/03/24 04:00:30;;;;;;;38.10;19.60;;;;;;;5.16;100.00;99267.89;105618;1296;26602;-76
2023/03/24 04:03:25;;;;;;;34.30;17.80;;;;;;;5.14;100.00;99284.09;105394;1296;26640;-76
2023/03/24 04:06:00;;;;;;;35.60;17.90;;;;;;;5.14;100.00;99300.60;105404;1296;23681;-76
2023/03/24 04:08:47;;;;;;;33.70;16.70;;;;;;;5.14;100.00;99314.90;104631;1296;1003765;-76
2023/03/24 04:11:43;;;;;;;;;;;;;;;5.14;100.00;99319.27;104904;1296;1003347;-77
2023/03/24 04:14:26;;;;;;;35.80;17.10;;;;;;;5.18;100.00;99341.14;104864;1296;1003570;-76
2023/03/24 04:17:48;;;;;;;32.60;16.90;;;;;;;5.24;100.00;99366.42;105591;1296;22565;-76
2023/03/24 04:20:37;;;;;;;25.40;14.40;;;;;;;5.33;100.00;99405.55;104985;1297;26974;-75
2023/03/24 04:23:13;;;;;;;34.60;17.60;;;;;;;5.42;100.00;99444.53;105466;1297;24292;-76
2023/03/24 04:25:57;;;;;;;33.50;16.20;;;;;;;5.52;100.00;99490.75;105088;1297;26570;-77
2023/03/24 04:28:32;;;;;;;31.20;15.40;;;;;;;5.63;100.00;99522.48;105149;1297;24296;-76
2023/03/24 04:31:06;;;;;;;30.40;17.20;;;;;;;5.76;100.00;99555.75;105499;1297;25353;-76
2023/03/24 04:33:37;;;;;;;30.70;17.50;;;;;;;5.89;100.00;99579.89;105164;1297;22550;-76
2023/03/24 04:36:17;;;;;;;36.10;18.20;;;;;;;6.01;100.00;99560.29;105493;1298;25421;-77
2023/03/24 04:39:09;;;;;;;35.60;18.00;;;;;;;6.15;100.00;99600.63;105333;1297;25592;-77
2023/03/24 04:41:46;;;;;;;34.80;19.00;;;;;;;6.25;100.00;99631.12;105515;1297;25484;-76
2023/03/24 04:44:22;;;;;;;37.80;20.00;;;;;;;6.35;100.00;99649.04;104358;1297;1002994;-76
2023/03/24 04:47:12;;;;;;;37.80;18.50;;;;;;;6.45;100.00;99660.21;105520;1297;26717;-76
2023/03/24 04:49:45;;;;;;;39.40;20.40;;;;;;;6.53;100.00;99671.11;105099;1297;22615;-77
2023/03/24 04:52:17;;;;;;;36.70;19.70;;;;;;;6.61;100.00;99687.45;105491;1297;25434;-76
2023/03/24 04:54:47;;;;;;;35.70;19.00;;;;;;;6.69;100.00;99691.04;105103;1297;25420;-76
2023/03/24 04:57:16;;;;;;;37.80;18.80;;;;;;;6.75;100.00;99680.52;105080;1297;22566;-77
2023/03/24 04:59:49;;;;;;;33.60;16.90;;;;;;;6.83;100.00;99663.23;105526;1297;25437;-77
2023/03/24 05:02:19;;;;;;;34.30;15.90;;;;;;;6.91;100.00;99637.23;105190;1297;24307;-77
2023/03/24 05:04:58;;;;;;;35.80;18.10;;;;;;;7.01;100.00;99614.98;105578;1296;25340;-77
2023/03/24 05:07:32;;;;;;;34.40;16.90;;;;;;;7.10;100.00;99602.07;105622;1296;25564;-77
2023/03/24 05:10:03;;;;;;;31.40;17.20;;;;;;;7.18;100.00;99583.13;105394;1296;25382;-76
2023/03/24 05:12:41;;;;;;;35.80;17.70;;;;;;;7.26;100.00;99560.91;105398;1296;26536;-75
2023/03/24 05:15:30;;;;;;;34.50;18.80;;;;;;;7.35;100.00;99536.51;105471;1296;25565;-76
2023/03/24 05:18:08;;;;;;;32.40;16.20;;;;;;;7.41;100.00;99505.93;105419;1296;26680;-77
2023/03/24 05:20:38;;;;;;;34.50;16.50;;;;;;;7.47;100.00;99486.64;105298;1296;25272;-76
2023/03/24 05:23:13;;;;;;;33.60;16.50;;;;;;;7.55;100.00;99465.37;105200;1296;25384;-78
2023/03/24 05:25:45;;;;;;;34.20;17.00;;;;;;;7.64;100.00;99453.23;105651;1296;25434;-77
2023/03/24 05:28:16;;;;;;;31.80;14.90;;;;;;;7.72;100.00;99425.30;105278;1296;25980;-77
2023/03/24 05:30:46;;;;;;;35.30;15.30;;;;;;;7.79;100.00;99407.44;105615;1296;25478;-76
2023/03/24 05:33:37;;;;;;;35.50;17.50;;;;;;;7.89;100.00;99372.98;105442;1296;25389;-77
2023/03/24 05:36:06;;;;;;;41.30;18.70;;;;;;;7.94;100.00;99349.77;105355;1296;25324;-77
2023/03/24 05:38:39;;;;;;;35.80;18.10;;;;;;;7.99;100.00;99316.21;105552;1296;26678;-77
2023/03/24 05:41:08;;;;;;;36.10;17.70;;;;;;;8.05;100.00;99286.22;105617;1296;25464;-76
2023/03/24 05:43:39;;;;;;;41.30;19.40;;;;;;;8.14;100.00;99268.29;105656;1296;25528;-78
2023/03/24 05:46:10;;;;;;;33.30;18.40;;;;;;;8.27;100.00;99257.12;105662;1296;22645;-76
2023/03/24 05:48:40;;;;;;;33.40;16.40;;;;;;;8.41;100.00;99239.14;105373;1296;25358;-76
2023/03/24 05:51:15;;;;;;;34.90;16.70;;;;;;;8.60;100.00;99219.99;105653;1296;25376;-75
2023/03/24 05:53:44;;;;;;;36.20;18.20;;;;;;;8.83;100.00;99209.86;105562;1296;25445;-72
2023/03/24 05:56:16;;;;;;;36.00;16.50;;;;;;;9.10;100.00;99198.98;105483;1296;22546;-73
2023/03/24 05:59:11;;;;;;;35.80;18.80;;;;;;;9.42;100.00;99169.83;105278;1296;25366;-78
2023/03/24 06:01:58;;;;;;;34.30;18.00;;;;;;;9.69;100.00;99163.64;105607;1296;22538;-77
2023/03/24 06:04:34;;;;;;;35.10;16.90;;;;;;;9.91;100.00;99133.27;106472;1293;26675;-74
2023/03/24 06:07:14;;;;;;;33.90;18.20;;;;;;;10.15;100.00;99113.36;107483;1296;183296;-74
2023/03/24 06:09:51;;;;;;;40.80;23.00;;;;;;;10.34;100.00;99081.39;105930;1296;1003342;-71
2023/03/24 06:12:22;;;;;;;32.40;17.00;;;;;;;10.46;100.00;99058.77;105453;1296;23594;-69
2023/03/24 06:14:57;;;;;;;30.80;16.00;;;;;;;10.50;100.00;99039.94;105578;1296;22542;-70
2023/03/24 06:17:29;;;;;;;29.10;14.30;;;;;;;10.52;100.00;99038.50;105375;1296;24316;-72
2023/03/24 06:20:04;;;;;;;;;;;;;;;10.50;100.00;99024.65;105460;1296;22697;-75
2023/03/24 06:23:05;;;;;;;28.50;14.30;;;;;;;10.42;100.00;99019.04;105405;1296;24408;-71
2023/03/24 06:25:44;;;;;;;30.20;15.30;;;;;;;10.44;100.00;99021.23;105345;1288;22546;-74
2023/03/24 06:28:21;;;;;;;34.50;15.20;;;;;;;10.57;100.00;99025.27;105647;1296;25514;-71
2023/03/24 06:30:57;;;;;;;29.70;15.60;;;;;;;10.84;100.00;99016.10;105440;1296;26728;-72
2023/03/24 06:33:33;;;;;;;29.30;14.20;;;;;;;11.23;100.00;99013.89;105638;1296;25381;-74
2023/03/24 06:36:03;;;;;;;31.90;14.50;;;;;;;11.60;100.00;99012.38;105348;1296;22821;-73
2023/03/24 06:38:33;;;;;;;32.00;15.30;;;;;;;11.95;100.00;99010.08;105591;1296;25289;-70
2023/03/24 06:41:02;;;;;;;43.40;22.60;;;;;;;12.29;100.00;99018.36;105154;1292;22669;-73
2023/03/24 06:43:31;;;;;;;173.10;88.90;;;;;;;12.61;100.00;99031.05;105404;1273;23200;-79
2023/03/24 06:46:00;;;;;;;38.90;19.80;;;;;;;12.83;100.00;99049.86;105403;1296;25403;-76
2023/03/24 06:48:29;;;;;;;29.60;15.90;;;;;;;13.00;100.00;99079.31;105307;1295;25516;-74
2023/03/24 06:51:03;;;;;;;36.40;18.90;;;;;;;13.17;100.00;99111.65;104218;1289;1003295;-79
2023/03/24 06:53:34;;;;;;;38.30;19.40;;;;;;;13.29;100.00;99165.14;105673;1287;25408;-77
2023/03/24 06:56:04;;;;;;;32.00;16.20;;;;;;;13.34;100.00;99232.41;105326;1290;25471;-77
2023/03/24 06:58:39;;;;;;;29.90;15.60;;;;;;;13.35;100.00;99278.66;105483;1290;26556;-73
2023/03/24 07:01:13;;;;;;;25.80;14.20;;;;;;;13.36;100.00;99312.29;105282;1290;25470;-75
2023/03/24 07:04:05;;;;;;;26.60;15.00;;;;;;;13.37;100.00;99342.53;105429;1290;25328;-74
2023/03/24 07:06:34;;;;;;;31.20;16.10;;;;;;;13.37;100.00;99382.13;105215;1297;25373;-73
2023/03/24 07:09:19;;;;;;;28.00;14.00;;;;;;;13.42;100.00;99408.26;105134;1297;26537;-74
2023/03/24 07:11:48;;;;;;;30.30;15.80;;;;;;;13.48;100.00;99442.23;105165;1298;25362;-74
2023/03/24 07:14:17;;;;;;;39.20;23.80;;;;;;;13.61;100.00;99453.89;105565;1296;23887;-76
2023/03/24 07:16:52;;;;;;;30.80;16.90;;;;;;;13.75;100.00;99465.09;105624;1296;25306;-72
2023/03/24 07:19:32;;;;;;;35.70;18.60;;;;;;;13.83;100.00;99479.36;105535;1289;26875;-72
2023/03/24 07:22:24;;;;;;;28.80;15.80;;;;;;;13.83;100.00;99474.56;104901;1297;24582;-72
2023/03/24 07:25:25;;;;;;;27.80;13.80;;;;;;;13.84;100.00;99467.27;104381;1298;1002990;-73
2023/03/24 07:28:04;;;;;;;28.50;15.00;;;;;;;13.86;100.00;99459.92;105200;1298;26690;-74
2023/03/24 07:30:36;;;;;;;26.20;14.60;;;;;;;13.93;100.00;99454.74;105144;1297;25453;-74
2023/03/24 07:33:10;;;;;;;35.80;16.40;;;;;;;13.99;100.00;99459.52;105561;1296;25453;-73
2023/03/24 07:35:40;;;;;;;31.10;16.80;;;;;;;14.05;100.00;99459.13;105662;1296;22564;-73
2023/03/24 07:38:14;;;;;;;33.00;15.40;;;;;;;14.13;100.00;99464.09;105592;1296;25510;-73
2023/03/24 07:40:43;;;;;;;29.20;14.20;;;;;;;14.20;100.00;99481.76;105573;1289;25555;-72
2023/03/24 07:43:13;;;;;;;41.80;18.90;;;;;;;14.25;100.00;99498.27;105661;1292;25762;-78
2023/03/24 07:46:01;;;;;;;36.70;14.70;;;;;;;14.28;100.00;99516.17;105369;1297;22561;-80
2023/03/24 07:48:31;;;;;;;28.50;13.10;;;;;;;14.31;100.00;99532.37;105463;1296;23133;-80
2023/03/24 07:51:00;;;;;;;30.00;15.40;;;;;;;14.34;100.00;99560.87;105998;1296;22553;-81
2023/03/24 07:53:52;;;;;;;27.40;15.20;;;;;;;14.35;100.00;99571.41;105536;1296;25410;-72
2023/03/24 07:56:44;;;;;;;23.10;10.80;;;;;;;14.43;100.00;99573.73;105593;1296;24042;-76
2023/03/24 07:59:13;;;;;;;27.00;10.10;;;;;;;14.56;100.00;99581.37;105174;1296;22541;-76
2023/03/24 08:02:15;;;;;;;22.30;10.60;;;;;;;14.79;100.00;99586.37;105401;1296;22950;-75
2023/03/24 08:05:12;;;;;;;20.10;9.70;;;;;;;15.03;100.00;99610.19;105514;1296;22515;-79
2023/03/24 08:08:12;;;;;;;19.00;8.50;;;;;;;15.33;100.00;99668.95;105964;1296;22543;-80
2023/03/24 08:10:41;;;;;;;19.90;9.00;;;;;;;15.57;100.00;99722.31;106429;1296;22545;-80
2023/03/24 08:13:11;;;;;;;17.60;9.00;;;;;;;15.74;100.00;99745.11;105566;1296;26649;-80
2023/03/24 08:15:40;;;;;;;19.40;8.70;;;;;;;15.84;100.00;99756.48;105976;1296;22708;-80
2023/03/24 08:18:10;;;;;;;19.40;8.50;;;;;;;15.92;100.00;99765.19;105693;1296;26613;-81
2023/03/24 08:20:38;;;;;;;18.50;8.10;;;;;;;16.01;100.00;99778.27;105883;1296;22699;-75
2023/03/24 08:23:07;;;;;;;16.90;7.30;;;;;;;16.09;100.00;99795.95;105720;1296;22556;-80
2023/03/24 08:25:36;;;;;;;17.10;7.10;;;;;;;16.10;100.00;99821.89;105536;1296;25449;-77
2023/03/24 08:28:05;;;;;;;18.60;7.50;;;;;;;16.12;100.00;99832.88;105508;1296;24249;-80
2023/03/24 08:30:35;;;;;;;14.90;7.00;;;;;;;16.15;100.00;99832.20;105753;1287;25431;-80
2023/03/24 08:33:07;;;;;;;15.30;6.60;;;;;;;16.26;100.00;99844.64;105662;1295;24285;-77
2023/03/24 08:35:38;;;;;;;18.10;8.50;;;;;;;16.34;100.00;99855.52;105470;1289;26578;-77
2023/03/24 08:38:08;;;;;;;15.70;6.80;;;;;;;16.38;100.00;99863.08;105576;1296;22653;-76
2023/03/24 08:40:37;;;;;;;19.40;7.50;;;;;;;16.47;100.00;99857.39;105752;1290;22597;-81
2023/03/24 08:43:07;;;;;;;22.50;7.10;;;;;;;16.72;100.00;99849.45;105441;1296;25606;-81
2023/03/24 08:45:36;;;;;;;23.70;7.90;;;;;;;16.85;100.00;99862.71;105993;1290;24382;-80
2023/03/24 08:48:05;;;;;;;24.40;9.70;;;;;;;16.89;100.00;99868.52;106288;1296;22549;-75
2023/03/24 08:50:38;;;;;;;17.70;7.30;;;;;;;17.01;100.00;99877.23;106107;1292;23882;-77
2023/03/24 08:53:07;;;;;;;20.40;7.70;;;;;;;17.08;100.00;99873.48;105889;1289;24404;-74
2023/03/24 08:55:40;;;;;;;18.00;6.80;;;;;;;17.11;100.00;99883.94;105623;1296;25440;-74
2023/03/24 08:58:18;;;;;;;16.10;6.50;;;;;;;17.16;100.00;99888.55;105685;1289;24344;-74
2023/03/24 09:00:47;;;;;;;16.80;7.30;;;;;;;17.28;100.00;99886.84;106148;1290;22769;-78
2023/03/24 09:03:20;;;;;;;23.50;7.00;;;;;;;17.53;100.00;99886.17;106127;1290;25433;-76
2023/03/24 09:05:55;;;;;;;16.40;6.20;;;;;;;17.92;100.00;99889.52;107203;1290;22649;-73
2023/03/24 09:08:27;;;;;;;14.10;6.00;;;;;;;17.98;100.00;99907.91;108098;1296;22682;-76
2023/03/24 09:10:59;;;;;;;15.10;6.40;;;;;;;17.92;100.00;99918.33;107173;1296;22508;-80
2023/03/24 09:13:28;;;;;;;37.40;6.80;;;;;;;17.90;100.00;99928.73;106346;1273;23440;-78
2023/03/24 09:16:01;;;;;;;14.10;6.20;;;;;;;17.80;100.00;99942.23;106060;1296;22571;-72
2023/03/24 09:18:30;;;;;;;21.80;6.90;;;;;;;17.76;100.00;99949.95;105886;1293;22553;-74
2023/03/24 09:20:59;;;;;;;15.00;6.50;;;;;;;17.72;100.00;99959.98;105715;1296;25451;-75
2023/03/24 09:23:30;;;;;;;17.50;6.80;;;;;;;17.69;100.00;99971.08;105703;1289;26764;-71
2023/03/24 09:25:58;;;;;;;22.00;8.60;;;;;;;17.61;100.00;99972.14;105509;1289;23795;-71
2023/03/24 09:28:27;;;;;;;22.50;8.50;;;;;;;17.53;100.00;99971.80;105490;1290;25953;-77
2023/03/24 09:30:59;;;;;;;21.40;8.30;;;;;;;17.49;100.00;99965.05;105651;1293;24282;-74
2023/03/24 09:33:29;;;;;;;19.50;7.60;;;;;;;17.63;100.00;99964.60;106213;1296;23983;-80
2023/03/24 09:36:01;;;;;;;26.20;8.90;;;;;;;17.91;100.00;99977.08;106425;1296;24282;-76
2023/03/24 09:38:33;;;;;;;20.60;8.80;;;;;;;18.04;100.00;99987.88;105587;1290;24317;-73
2023/03/24 09:41:03;;;;;;;22.70;10.20;;;;;;;18.01;100.00;99995.48;105823;1289;26643;-74
2023/03/24 09:43:41;;;;;;;17.40;8.00;;;;;;;17.99;100.00;99991.92;106196;1290;25385;-74
2023/03/24 09:46:13;;;;;;;19.60;8.50;;;;;;;18.01;100.00;99991.05;106325;1289;25445;-82
2023/03/24 09:48:47;;;;;;;20.00;9.10;;;;;;;17.95;100.00;99997.63;106240;1290;22598;-82
2023/03/24 09:51:26;;;;;;;22.00;9.10;;;;;;;17.97;100.00;99995.80;105947;1290;22542;-81
2023/03/24 09:53:58;;;;;;;22.70;8.10;;;;;;;18.29;100.00;99986.80;106266;1293;22544;-78
2023/03/24 09:56:28;;;;;;;19.70;7.60;;;;;;;18.73;100.00;99977.48;106810;1290;22841;-77
2023/03/24 09:59:07;;;;;;;16.00;7.40;;;;;;;19.06;100.00;99970.48;106272;1295;24263;-78
2023/03/24 10:01:37;;;;;;;17.50;6.90;;;;;;;19.41;100.00;99963.11;105315;1295;25847;-73
2023/03/24 10:04:17;;;;;;;16.90;7.40;;;;;;;19.59;100.00;99950.29;105819;1274;23836;-82
2023/03/24 10:06:51;;;;;;;15.20;6.80;;;;;;;19.55;100.00;99950.98;105952;1289;22567;-79
2023/03/24 10:09:26;;;;;;;20.80;8.20;;;;;;;19.40;100.00;99961.82;106278;1295;23939;-82
2023/03/24 10:12:23;;;;;;;17.60;7.90;;;;;;;19.18;100.00;99970.02;106722;1295;26615;-79
2023/03/24 10:15:19;;;;;;;20.60;7.50;;;;;;;18.84;100.00;99961.16;106227;1295;25456;-76
2023/03/24 10:18:20;;;;;;;20.10;7.50;;;;;;;18.61;100.00;99954.98;105952;1296;25477;-85
2023/03/24 10:21:15;;;;;;;27.90;7.00;;;;;;;18.68;100.00;99953.69;106249;1295;23892;-78
2023/03/24 10:24:14;;;;;;;23.10;7.40;;;;;;;18.73;100.00;99955.56;105538;1296;24239;-72
2023/03/24 10:27:26;;;;;;;20.00;7.60;;;;;;;18.84;100.00;99950.67;105690;1295;25909;-73
2023/03/24 10:29:56;;;;;;;;;;;;;;;18.96;100.00;99942.58;105516;1295;25230;-74
2023/03/24 10:32:29;;;;;;;18.00;6.70;;;;;;;18.98;100.00;99941.91;105855;1295;22865;-75
2023/03/24 10:35:08;;;;;;;17.90;7.80;;;;;;;19.00;100.00;99932.05;105618;1295;22645;-76
2023/03/24 10:37:37;;;;;;;17.90;7.50;;;;;;;18.99;100.00;99929.26;105691;1295;22569;-74
2023/03/24 10:40:15;;;;;;;21.30;6.80;;;;;;;19.13;100.00;99921.13;105603;1295;25470;-73
2023/03/24 10:42:44;;;;;;;19.80;7.40;;;;;;;19.30;100.00;99921.08;105710;1295;22577;-72
2023/03/24 10:45:24;;;;;;;18.40;7.70;;;;;;;19.32;100.00;99910.88;105526;1288;26550;-75
2023/03/24 10:47:56;;;;;;;17.50;5.90;;;;;;;19.30;100.00;99914.33;105948;1289;23241;-76
2023/03/24 10:50:34;;;;;;;13.90;6.20;;;;;;;19.22;100.00;99907.14;105629;1296;22794;-73
2023/03/24 10:53:08;;;;;;;22.60;7.80;;;;;;;19.22;100.00;99906.60;105335;1296;25381;-71
2023/03/24 10:55:42;;;;;;;16.30;6.40;;;;;;;19.28;100.00;99903.21;105553;1296;25452;-74
2023/03/24 10:58:36;;;;;;;21.00;9.10;;;;;;;19.30;100.00;99901.46;105587;1290;25557;-72
2023/03/24 11:01:34;;;;;;;22.90;10.90;;;;;;;19.33;100.00;99899.44;105185;1293;26670;-76
2023/03/24 11:04:06;;;;;;;20.50;9.00;;;;;;;19.49;100.00;99889.04;105696;1296;24253;-74
2023/03/24 11:06:36;;;;;;;18.50;7.10;;;;;;;19.69;100.00;99882.46;105470;1288;22904;-79
2023/03/24 11:09:18;;;;;;;56.50;24.00;;;;;;;19.83;100.00;99880.17;105777;1293;25507;-81
2023/03/24 11:11:49;;;;;;;25.70;8.80;;;;;;;19.89;100.00;99880.69;105209;1292;22558;-73
2023/03/24 11:14:25;;;;;;;27.00;11.70;;;;;;;19.82;100.00;99884.91;105732;1293;22565;-76
2023/03/24 11:17:11;;;;;;;40.10;17.80;;;;;;;19.90;100.00;99881.61;105622;1296;25344;-74
2023/03/24 11:19:55;;;;;;;42.20;19.10;;;;;;;20.12;100.00;99879.21;105406;1287;26538;-77
2023/03/24 11:22:25;;;;;;;31.80;12.00;;;;;;;20.25;100.00;99876.28;105564;1290;24255;-78
2023/03/24 11:24:55;;;;;;;22.20;8.60;;;;;;;20.42;100.00;99875.09;105346;1295;22553;-79
2023/03/24 11:27:24;;;;;;;23.40;7.90;;;;;;;20.47;100.00;99873.12;106337;1289;22712;-75
2023/03/24 11:29:54;;;;;;;32.50;14.90;;;;;;;20.43;100.00;99872.73;105488;1289;25386;-74
2023/03/24 11:32:28;;;;;;;25.10;10.60;;;;;;;20.41;100.00;99872.86;107825;1292;25434;-72
2023/03/24 11:35:25;;;;;;;26.60;10.60;;;;;;;20.36;100.00;99866.55;108358;1297;22667;-80
2023/03/24 11:38:15;;;;;;;19.60;6.40;;;;;;;20.18;100.00;99868.21;105959;1297;22689;-71
2023/03/24 11:40:57;;;;;;;49.10;14.40;;;;;;;20.09;100.00;99866.92;105587;1292;26554;-72
2023/03/24 11:43:29;;;;;;;53.40;19.20;;;;;;;20.13;100.00;99866.69;105426;1292;25589;-73
2023/03/24 11:45:58;;;;;;;16.70;8.70;;;;;;;20.10;100.00;99863.65;105511;1292;23879;-70
2023/03/24 11:48:38;;;;;;;22.60;10.40;;;;;;;20.11;100.00;99858.61;105387;1297;25379;-71